Wonderboom Airport

Airport
ICAO code: 
FAWB
IATA Code: 
PRY
Summary
ICAO Region: 
AFI
Territory: 
Location: 
Pretoria, Gauteng
Serving: 
Pretoria
Elevation: 
4095 ft
Coordinates: 
Aerial View: 
25° 39' 13.889" S, 28° 13' 27.232" E
Metar
Observation
FAWB 031200Z 30006KT CAVOK 31/16 Q1018
Station
Wonderboom / Pretoria
Date/Time
2021-12-03 12:00:00
Wind direction
300°
Wind speed
06 kts
Lowest cloud amount
clouds and visibility OK
Temperature
31°C
Dew point
16°C
Humidity
40%
QNH
1018 hPa
Weather condition
n/a

Description

Airport handling general aviation traffic north of Pretoria, South Africa.

Climatology

Within the Köppen Climate Classification System, ((Koppen climate classification Cwa)) this climate type generally has warm and humid summers with mild dry winters. Convective thunderstorms provide precipitation in the summer months.

Runways

Designator Length Width Surface Rops
6/24 1280 22 ASP No/No
11/29 1828 30 ASP No/No
Airport map: 
Aerial View: 

SKYbrary Partners:

Safety knowledge contributed by: